sensor_id;sensor_type;location;lat;lon;timestamp;P1;durP1;ratioP1;P2;durP2;ratioP2
10517;SDS011;5307;42.548;22.968;2023-12-07T00:00:25;36.15;;;19.17;;
10517;SDS011;5307;42.548;22.968;2023-12-07T00:02:53;37.33;;;19.55;;
10517;SDS011;5307;42.548;22.968;2023-12-07T00:05:20;31.02;;;16.42;;
10517;SDS011;5307;42.548;22.968;2023-12-07T00:07:46;40.78;;;20.27;;
10517;SDS011;5307;42.548;22.968;2023-12-07T00:10:13;36.00;;;20.60;;
10517;SDS011;5307;42.548;22.968;2023-12-07T00:12:40;37.53;;;19.90;;
10517;SDS011;5307;42.548;22.968;2023-12-07T00:18:36;36.90;;;17.23;;
10517;SDS011;5307;42.548;22.968;2023-12-07T00:21:03;33.78;;;17.73;;
10517;SDS011;5307;42.548;22.968;2023-12-07T00:23:31;34.33;;;17.95;;
10517;SDS011;5307;42.548;22.968;2023-12-07T00:25:58;35.15;;;18.60;;
10517;SDS011;5307;42.548;22.968;2023-12-07T00:28:24;32.92;;;17.48;;
10517;SDS011;5307;42.548;22.968;2023-12-07T00:30:51;40.53;;;20.23;;
10517;SDS011;5307;42.548;22.968;2023-12-07T00:33:18;44.60;;;22.20;;
10517;SDS011;5307;42.548;22.968;2023-12-07T00:35:48;40.15;;;19.50;;
10517;SDS011;5307;42.548;22.968;2023-12-07T00:38:15;42.38;;;21.58;;
10517;SDS011;5307;42.548;22.968;2023-12-07T00:40:42;41.83;;;21.13;;
10517;SDS011;5307;42.548;22.968;2023-12-07T00:43:08;43.60;;;21.63;;
10517;SDS011;5307;42.548;22.968;2023-12-07T00:45:35;42.13;;;21.58;;
10517;SDS011;5307;42.548;22.968;2023-12-07T00:48:02;38.97;;;19.45;;
10517;SDS011;5307;42.548;22.968;2023-12-07T00:50:29;42.15;;;21.27;;
10517;SDS011;5307;42.548;22.968;2023-12-07T00:52:57;39.53;;;20.00;;
10517;SDS011;5307;42.548;22.968;2023-12-07T00:55:24;42.80;;;20.98;;
10517;SDS011;5307;42.548;22.968;2023-12-07T00:57:51;44.40;;;20.85;;
10517;SDS011;5307;42.548;22.968;2023-12-07T01:00:17;43.33;;;22.27;;
10517;SDS011;5307;42.548;22.968;2023-12-07T01:02:44;40.67;;;20.65;;
10517;SDS011;5307;42.548;22.968;2023-12-07T01:05:11;43.58;;;20.95;;
10517;SDS011;5307;42.548;22.968;2023-12-07T01:07:38;41.47;;;21.65;;
10517;SDS011;5307;42.548;22.968;2023-12-07T01:10:07;40.22;;;20.70;;
10517;SDS011;5307;42.548;22.968;2023-12-07T01:12:34;42.92;;;22.35;;
10517;SDS011;5307;42.548;22.968;2023-12-07T01:15:03;41.22;;;19.73;;
10517;SDS011;5307;42.548;22.968;2023-12-07T01:17:30;45.45;;;21.38;;
10517;SDS011;5307;42.548;22.968;2023-12-07T01:19:57;41.65;;;20.90;;
10517;SDS011;5307;42.548;22.968;2023-12-07T01:22:24;46.45;;;21.52;;
10517;SDS011;5307;42.548;22.968;2023-12-07T01:24:51;53.03;;;26.70;;
10517;SDS011;5307;42.548;22.968;2023-12-07T01:27:19;42.58;;;21.52;;
10517;SDS011;5307;42.548;22.968;2023-12-07T01:29:45;38.05;;;20.17;;
10517;SDS011;5307;42.548;22.968;2023-12-07T01:32:12;43.25;;;20.95;;
10517;SDS011;5307;42.548;22.968;2023-12-07T01:34:39;41.90;;;21.00;;
10517;SDS011;5307;42.548;22.968;2023-12-07T01:37:06;39.90;;;20.23;;
10517;SDS011;5307;42.548;22.968;2023-12-07T01:39:33;41.17;;;20.20;;
10517;SDS011;5307;42.548;22.968;2023-12-07T01:41:59;39.28;;;20.52;;
10517;SDS011;5307;42.548;22.968;2023-12-07T01:44:27;39.80;;;20.40;;
10517;SDS011;5307;42.548;22.968;2023-12-07T01:46:54;38.85;;;20.08;;
10517;SDS011;5307;42.548;22.968;2023-12-07T01:49:21;41.38;;;21.13;;
10517;SDS011;5307;42.548;22.968;2023-12-07T01:51:48;41.10;;;19.85;;
10517;SDS011;5307;42.548;22.968;2023-12-07T01:54:15;41.05;;;20.92;;
10517;SDS011;5307;42.548;22.968;2023-12-07T01:56:42;46.15;;;20.92;;
10517;SDS011;5307;42.548;22.968;2023-12-07T01:59:09;39.20;;;18.30;;
10517;SDS011;5307;42.548;22.968;2023-12-07T02:01:38;41.92;;;21.08;;
10517;SDS011;5307;42.548;22.968;2023-12-07T02:04:05;42.28;;;21.60;;
10517;SDS011;5307;42.548;22.968;2023-12-07T02:06:32;46.20;;;21.33;;
10517;SDS011;5307;42.548;22.968;2023-12-07T02:08:59;44.60;;;22.25;;
10517;SDS011;5307;42.548;22.968;2023-12-07T02:11:26;41.38;;;20.45;;
10517;SDS011;5307;42.548;22.968;2023-12-07T02:13:53;42.90;;;21.63;;
10517;SDS011;5307;42.548;22.968;2023-12-07T02:16:23;43.72;;;21.05;;
10517;SDS011;5307;42.548;22.968;2023-12-07T02:18:58;45.08;;;21.23;;
10517;SDS011;5307;42.548;22.968;2023-12-07T02:21:36;41.55;;;20.27;;
10517;SDS011;5307;42.548;22.968;2023-12-07T02:24:07;45.40;;;21.80;;
10517;SDS011;5307;42.548;22.968;2023-12-07T02:26:38;42.92;;;20.45;;
10517;SDS011;5307;42.548;22.968;2023-12-07T02:29:05;39.38;;;20.50;;
10517;SDS011;5307;42.548;22.968;2023-12-07T02:31:33;44.42;;;20.30;;
10517;SDS011;5307;42.548;22.968;2023-12-07T02:34:00;42.72;;;20.67;;
10517;SDS011;5307;42.548;22.968;2023-12-07T02:36:27;44.67;;;19.88;;
10517;SDS011;5307;42.548;22.968;2023-12-07T02:38:56;40.95;;;19.98;;
10517;SDS011;5307;42.548;22.968;2023-12-07T02:41:26;43.63;;;20.38;;
10517;SDS011;5307;42.548;22.968;2023-12-07T02:43:55;42.08;;;20.58;;
10517;SDS011;5307;42.548;22.968;2023-12-07T02:46:22;41.67;;;21.05;;
10517;SDS011;5307;42.548;22.968;2023-12-07T02:48:49;42.85;;;20.23;;
10517;SDS011;5307;42.548;22.968;2023-12-07T02:51:16;43.50;;;20.77;;
10517;SDS011;5307;42.548;22.968;2023-12-07T02:53:43;43.50;;;21.25;;
10517;SDS011;5307;42.548;22.968;2023-12-07T02:56:10;48.50;;;21.08;;
10517;SDS011;5307;42.548;22.968;2023-12-07T02:58:36;51.38;;;21.67;;
10517;SDS011;5307;42.548;22.968;2023-12-07T03:01:05;47.70;;;22.02;;
10517;SDS011;5307;42.548;22.968;2023-12-07T03:03:33;47.75;;;21.90;;
10517;SDS011;5307;42.548;22.968;2023-12-07T03:12:05;45.35;;;20.60;;
10517;SDS011;5307;42.548;22.968;2023-12-07T03:14:33;44.35;;;20.80;;
10517;SDS011;5307;42.548;22.968;2023-12-07T03:17:01;47.17;;;21.27;;
10517;SDS011;5307;42.548;22.968;2023-12-07T03:19:27;47.13;;;22.33;;
10517;SDS011;5307;42.548;22.968;2023-12-07T03:21:54;46.50;;;21.80;;
10517;SDS011;5307;42.548;22.968;2023-12-07T03:24:21;47.00;;;21.38;;
10517;SDS011;5307;42.548;22.968;2023-12-07T03:26:49;44.35;;;21.88;;
10517;SDS011;5307;42.548;22.968;2023-12-07T03:29:15;52.95;;;22.38;;
10517;SDS011;5307;42.548;22.968;2023-12-07T03:31:42;48.75;;;23.60;;
10517;SDS011;5307;42.548;22.968;2023-12-07T03:34:11;48.95;;;22.38;;
10517;SDS011;5307;42.548;22.968;2023-12-07T03:36:40;47.40;;;24.35;;
10517;SDS011;5307;42.548;22.968;2023-12-07T03:39:08;45.88;;;22.27;;
10517;SDS011;5307;42.548;22.968;2023-12-07T03:41:43;43.70;;;21.13;;
10517;SDS011;5307;42.548;22.968;2023-12-07T03:44:10;42.75;;;21.10;;
10517;SDS011;5307;42.548;22.968;2023-12-07T03:46:37;49.28;;;22.83;;
10517;SDS011;5307;42.548;22.968;2023-12-07T03:49:04;42.05;;;21.92;;
10517;SDS011;5307;42.548;22.968;2023-12-07T03:51:32;46.63;;;22.75;;
10517;SDS011;5307;42.548;22.968;2023-12-07T03:54:01;51.85;;;23.23;;
10517;SDS011;5307;42.548;22.968;2023-12-07T03:56:29;48.58;;;23.45;;
10517;SDS011;5307;42.548;22.968;2023-12-07T03:58:56;43.58;;;22.38;;
10517;SDS011;5307;42.548;22.968;2023-12-07T04:01:23;53.00;;;24.00;;
10517;SDS011;5307;42.548;22.968;2023-12-07T04:03:50;46.47;;;23.05;;
10517;SDS011;5307;42.548;22.968;2023-12-07T04:06:17;51.83;;;22.70;;
10517;SDS011;5307;42.548;22.968;2023-12-07T04:08:47;48.47;;;22.27;;
10517;SDS011;5307;42.548;22.968;2023-12-07T04:11:14;44.97;;;22.67;;
10517;SDS011;5307;42.548;22.968;2023-12-07T04:13:41;47.25;;;20.52;;
10517;SDS011;5307;42.548;22.968;2023-12-07T04:16:09;35.83;;;18.33;;
10517;SDS011;5307;42.548;22.968;2023-12-07T04:18:36;35.05;;;17.98;;
10517;SDS011;5307;42.548;22.968;2023-12-07T04:21:03;34.95;;;18.20;;
10517;SDS011;5307;42.548;22.968;2023-12-07T04:23:31;32.95;;;17.77;;
10517;SDS011;5307;42.548;22.968;2023-12-07T04:25:59;35.92;;;19.20;;
10517;SDS011;5307;42.548;22.968;2023-12-07T04:28:26;30.85;;;15.98;;
10517;SDS011;5307;42.548;22.968;2023-12-07T04:30:53;28.67;;;15.30;;
10517;SDS011;5307;42.548;22.968;2023-12-07T04:33:19;29.90;;;15.07;;
10517;SDS011;5307;42.548;22.968;2023-12-07T04:35:46;24.35;;;13.10;;
10517;SDS011;5307;42.548;22.968;2023-12-07T04:38:13;22.98;;;13.10;;
10517;SDS011;5307;42.548;22.968;2023-12-07T04:40:39;25.40;;;14.05;;
10517;SDS011;5307;42.548;22.968;2023-12-07T04:43:08;24.80;;;13.95;;
10517;SDS011;5307;42.548;22.968;2023-12-07T04:45:35;21.48;;;12.70;;
10517;SDS011;5307;42.548;22.968;2023-12-07T04:48:01;23.20;;;13.48;;
10517;SDS011;5307;42.548;22.968;2023-12-07T04:50:29;23.50;;;14.35;;
10517;SDS011;5307;42.548;22.968;2023-12-07T04:52:56;29.27;;;14.38;;
10517;SDS011;5307;42.548;22.968;2023-12-07T04:55:22;24.55;;;14.32;;
10517;SDS011;5307;42.548;22.968;2023-12-07T04:57:49;28.02;;;14.95;;
10517;SDS011;5307;42.548;22.968;2023-12-07T05:00:17;36.60;;;20.23;;
10517;SDS011;5307;42.548;22.968;2023-12-07T05:02:45;38.85;;;22.50;;
10517;SDS011;5307;42.548;22.968;2023-12-07T05:05:13;33.15;;;18.83;;
10517;SDS011;5307;42.548;22.968;2023-12-07T05:07:39;32.70;;;17.05;;
10517;SDS011;5307;42.548;22.968;2023-12-07T05:10:06;29.52;;;15.77;;
10517;SDS011;5307;42.548;22.968;2023-12-07T05:12:34;33.58;;;17.92;;
10517;SDS011;5307;42.548;22.968;2023-12-07T05:15:01;33.95;;;18.88;;
10517;SDS011;5307;42.548;22.968;2023-12-07T05:17:32;39.85;;;21.42;;
10517;SDS011;5307;42.548;22.968;2023-12-07T05:19:59;42.67;;;22.20;;
10517;SDS011;5307;42.548;22.968;2023-12-07T05:22:27;39.42;;;21.60;;
10517;SDS011;5307;42.548;22.968;2023-12-07T05:24:54;42.60;;;21.83;;
10517;SDS011;5307;42.548;22.968;2023-12-07T05:27:20;66.05;;;32.90;;
10517;SDS011;5307;42.548;22.968;2023-12-07T05:29:47;56.53;;;28.48;;
10517;SDS011;5307;42.548;22.968;2023-12-07T05:32:14;47.30;;;23.75;;
10517;SDS011;5307;42.548;22.968;2023-12-07T05:34:42;45.05;;;22.27;;
10517;SDS011;5307;42.548;22.968;2023-12-07T05:37:09;45.15;;;22.92;;
10517;SDS011;5307;42.548;22.968;2023-12-07T05:39:35;56.28;;;24.52;;
10517;SDS011;5307;42.548;22.968;2023-12-07T05:42:02;72.25;;;30.30;;
10517;SDS011;5307;42.548;22.968;2023-12-07T05:44:30;61.83;;;27.08;;
10517;SDS011;5307;42.548;22.968;2023-12-07T05:46:57;60.92;;;27.33;;
10517;SDS011;5307;42.548;22.968;2023-12-07T05:49:24;53.65;;;24.58;;
10517;SDS011;5307;42.548;22.968;2023-12-07T05:51:52;59.33;;;26.27;;
10517;SDS011;5307;42.548;22.968;2023-12-07T05:54:19;71.38;;;29.55;;
10517;SDS011;5307;42.548;22.968;2023-12-07T05:56:47;77.85;;;30.55;;
10517;SDS011;5307;42.548;22.968;2023-12-07T05:59:14;76.45;;;29.95;;
10517;SDS011;5307;42.548;22.968;2023-12-07T06:05:04;76.35;;;32.45;;
10517;SDS011;5307;42.548;22.968;2023-12-07T06:07:32;103.90;;;42.13;;
10517;SDS011;5307;42.548;22.968;2023-12-07T06:09:59;72.68;;;28.95;;
10517;SDS011;5307;42.548;22.968;2023-12-07T06:12:26;67.07;;;28.05;;
10517;SDS011;5307;42.548;22.968;2023-12-07T06:14:52;72.43;;;28.70;;
10517;SDS011;5307;42.548;22.968;2023-12-07T06:17:20;77.47;;;29.10;;
10517;SDS011;5307;42.548;22.968;2023-12-07T06:19:47;88.35;;;36.97;;
10517;SDS011;5307;42.548;22.968;2023-12-07T06:22:13;81.65;;;34.30;;
10517;SDS011;5307;42.548;22.968;2023-12-07T06:24:41;80.25;;;33.42;;
10517;SDS011;5307;42.548;22.968;2023-12-07T06:27:09;66.18;;;30.70;;
10517;SDS011;5307;42.548;22.968;2023-12-07T06:29:36;52.75;;;26.58;;
10517;SDS011;5307;42.548;22.968;2023-12-07T06:32:03;60.47;;;26.08;;
10517;SDS011;5307;42.548;22.968;2023-12-07T06:34:30;56.40;;;22.13;;
10517;SDS011;5307;42.548;22.968;2023-12-07T06:36:56;66.57;;;24.88;;
10517;SDS011;5307;42.548;22.968;2023-12-07T06:39:23;86.57;;;31.58;;
10517;SDS011;5307;42.548;22.968;2023-12-07T06:41:51;88.65;;;37.45;;
10517;SDS011;5307;42.548;22.968;2023-12-07T06:44:19;68.75;;;29.17;;
10517;SDS011;5307;42.548;22.968;2023-12-07T06:46:46;70.07;;;30.58;;
10517;SDS011;5307;42.548;22.968;2023-12-07T06:49:13;74.10;;;32.17;;
10517;SDS011;5307;42.548;22.968;2023-12-07T06:51:39;88.63;;;40.38;;
10517;SDS011;5307;42.548;22.968;2023-12-07T06:54:06;82.75;;;40.92;;
10517;SDS011;5307;42.548;22.968;2023-12-07T06:56:33;20.77;;;12.43;;
10517;SDS011;5307;42.548;22.968;2023-12-07T06:59:01;52.78;;;26.38;;
10517;SDS011;5307;42.548;22.968;2023-12-07T07:04:45;49.03;;;21.17;;
10517;SDS011;5307;42.548;22.968;2023-12-07T07:07:14;92.15;;;34.30;;
10517;SDS011;5307;42.548;22.968;2023-12-07T07:09:40;30.27;;;16.27;;
10517;SDS011;5307;42.548;22.968;2023-12-07T07:12:07;59.20;;;26.83;;
10517;SDS011;5307;42.548;22.968;2023-12-07T07:14:36;30.10;;;15.65;;
10517;SDS011;5307;42.548;22.968;2023-12-07T07:17:03;37.47;;;18.52;;
10517;SDS011;5307;42.548;22.968;2023-12-07T07:19:30;50.78;;;24.92;;
10517;SDS011;5307;42.548;22.968;2023-12-07T07:21:57;32.85;;;18.88;;
10517;SDS011;5307;42.548;22.968;2023-12-07T07:24:24;29.45;;;16.70;;
10517;SDS011;5307;42.548;22.968;2023-12-07T07:26:51;26.17;;;16.13;;
10517;SDS011;5307;42.548;22.968;2023-12-07T07:29:18;26.15;;;12.13;;
10517;SDS011;5307;42.548;22.968;2023-12-07T07:31:46;18.10;;;12.15;;
10517;SDS011;5307;42.548;22.968;2023-12-07T07:34:13;16.42;;;8.73;;
10517;SDS011;5307;42.548;22.968;2023-12-07T07:36:39;25.70;;;15.25;;
10517;SDS011;5307;42.548;22.968;2023-12-07T07:39:06;15.48;;;9.95;;
10517;SDS011;5307;42.548;22.968;2023-12-07T07:41:34;20.17;;;9.20;;
10517;SDS011;5307;42.548;22.968;2023-12-07T07:44:01;37.50;;;19.08;;
10517;SDS011;5307;42.548;22.968;2023-12-07T07:46:28;25.23;;;12.20;;
10517;SDS011;5307;42.548;22.968;2023-12-07T07:48:56;17.15;;;9.57;;
10517;SDS011;5307;42.548;22.968;2023-12-07T07:51:23;24.42;;;13.15;;
10517;SDS011;5307;42.548;22.968;2023-12-07T07:53:49;22.25;;;10.20;;
10517;SDS011;5307;42.548;22.968;2023-12-07T07:56:16;17.08;;;8.13;;
10517;SDS011;5307;42.548;22.968;2023-12-07T07:58:43;19.60;;;8.38;;
10517;SDS011;5307;42.548;22.968;2023-12-07T08:01:10;13.73;;;6.75;;
10517;SDS011;5307;42.548;22.968;2023-12-07T08:03:37;11.73;;;7.03;;
10517;SDS011;5307;42.548;22.968;2023-12-07T08:06:06;5.53;;;3.05;;
10517;SDS011;5307;42.548;22.968;2023-12-07T08:08:33;10.25;;;5.10;;
10517;SDS011;5307;42.548;22.968;2023-12-07T08:11:00;8.73;;;5.53;;
10517;SDS011;5307;42.548;22.968;2023-12-07T08:13:27;8.15;;;4.95;;
10517;SDS011;5307;42.548;22.968;2023-12-07T08:15:53;9.73;;;4.50;;
10517;SDS011;5307;42.548;22.968;2023-12-07T08:18:20;7.53;;;5.20;;
10517;SDS011;5307;42.548;22.968;2023-12-07T08:20:47;6.35;;;4.28;;
10517;SDS011;5307;42.548;22.968;2023-12-07T08:23:15;7.20;;;4.60;;
10517;SDS011;5307;42.548;22.968;2023-12-07T08:25:42;8.82;;;5.93;;
10517;SDS011;5307;42.548;22.968;2023-12-07T08:28:09;7.70;;;4.55;;
10517;SDS011;5307;42.548;22.968;2023-12-07T08:30:36;6.25;;;4.57;;
10517;SDS011;5307;42.548;22.968;2023-12-07T08:33:03;6.22;;;4.43;;
10517;SDS011;5307;42.548;22.968;2023-12-07T08:35:30;5.97;;;4.35;;
10517;SDS011;5307;42.548;22.968;2023-12-07T08:37:56;5.70;;;4.28;;
10517;SDS011;5307;42.548;22.968;2023-12-07T08:40:24;6.10;;;3.85;;
10517;SDS011;5307;42.548;22.968;2023-12-07T08:42:51;5.60;;;4.20;;
10517;SDS011;5307;42.548;22.968;2023-12-07T08:45:21;7.90;;;4.80;;
10517;SDS011;5307;42.548;22.968;2023-12-07T08:47:48;4.95;;;4.05;;
10517;SDS011;5307;42.548;22.968;2023-12-07T08:50:15;6.43;;;4.15;;
10517;SDS011;5307;42.548;22.968;2023-12-07T08:52:42;6.00;;;4.13;;
10517;SDS011;5307;42.548;22.968;2023-12-07T08:55:09;4.68;;;3.88;;
10517;SDS011;5307;42.548;22.968;2023-12-07T09:04:19;4.97;;;3.85;;
10517;SDS011;5307;42.548;22.968;2023-12-07T09:06:46;4.93;;;3.72;;
10517;SDS011;5307;42.548;22.968;2023-12-07T09:09:12;4.63;;;3.33;;
10517;SDS011;5307;42.548;22.968;2023-12-07T09:11:39;8.93;;;4.90;;
10517;SDS011;5307;42.548;22.968;2023-12-07T09:14:06;5.40;;;4.28;;
10517;SDS011;5307;42.548;22.968;2023-12-07T09:16:33;4.15;;;3.40;;
10517;SDS011;5307;42.548;22.968;2023-12-07T09:19:00;3.60;;;3.00;;
10517;SDS011;5307;42.548;22.968;2023-12-07T09:21:28;5.10;;;3.70;;
10517;SDS011;5307;42.548;22.968;2023-12-07T09:23:55;3.80;;;3.03;;
10517;SDS011;5307;42.548;22.968;2023-12-07T09:26:22;3.22;;;2.92;;
10517;SDS011;5307;42.548;22.968;2023-12-07T09:28:48;3.83;;;2.75;;
10517;SDS011;5307;42.548;22.968;2023-12-07T09:31:15;3.78;;;2.92;;
10517;SDS011;5307;42.548;22.968;2023-12-07T09:33:42;3.30;;;2.33;;
10517;SDS011;5307;42.548;22.968;2023-12-07T09:36:09;3.17;;;2.58;;
10517;SDS011;5307;42.548;22.968;2023-12-07T09:38:38;2.85;;;2.55;;
10517;SDS011;5307;42.548;22.968;2023-12-07T09:41:05;2.90;;;2.17;;
10517;SDS011;5307;42.548;22.968;2023-12-07T09:43:32;2.22;;;2.03;;
10517;SDS011;5307;42.548;22.968;2023-12-07T09:45:58;3.33;;;2.65;;
10517;SDS011;5307;42.548;22.968;2023-12-07T09:48:26;3.60;;;2.63;;
10517;SDS011;5307;42.548;22.968;2023-12-07T09:50:54;4.57;;;2.17;;
10517;SDS011;5307;42.548;22.968;2023-12-07T09:53:22;3.15;;;1.77;;
10517;SDS011;5307;42.548;22.968;2023-12-07T09:55:50;2.97;;;2.30;;
10517;SDS011;5307;42.548;22.968;2023-12-07T09:58:17;4.00;;;1.98;;
10517;SDS011;5307;42.548;22.968;2023-12-07T10:00:44;4.80;;;2.55;;
10517;SDS011;5307;42.548;22.968;2023-12-07T10:03:19;6.05;;;3.95;;
10517;SDS011;5307;42.548;22.968;2023-12-07T10:05:54;42.17;;;17.05;;
10517;SDS011;5307;42.548;22.968;2023-12-07T10:08:25;5.47;;;3.17;;
10517;SDS011;5307;42.548;22.968;2023-12-07T10:11:02;5.15;;;3.53;;
10517;SDS011;5307;42.548;22.968;2023-12-07T10:13:31;2.00;;;1.80;;
10517;SDS011;5307;42.548;22.968;2023-12-07T10:16:08;3.58;;;2.05;;
10517;SDS011;5307;42.548;22.968;2023-12-07T10:18:36;2.95;;;1.70;;
10517;SDS011;5307;42.548;22.968;2023-12-07T10:21:05;8.40;;;3.05;;
10517;SDS011;5307;42.548;22.968;2023-12-07T10:23:33;9.02;;;3.70;;
10517;SDS011;5307;42.548;22.968;2023-12-07T10:26:00;7.45;;;4.70;;
10517;SDS011;5307;42.548;22.968;2023-12-07T10:28:28;6.35;;;4.32;;
10517;SDS011;5307;42.548;22.968;2023-12-07T10:30:56;6.43;;;4.35;;
10517;SDS011;5307;42.548;22.968;2023-12-07T10:33:23;5.95;;;3.72;;
10517;SDS011;5307;42.548;22.968;2023-12-07T10:35:50;7.53;;;4.00;;
10517;SDS011;5307;42.548;22.968;2023-12-07T10:38:16;9.32;;;5.35;;
10517;SDS011;5307;42.548;22.968;2023-12-07T10:40:44;5.47;;;3.25;;
10517;SDS011;5307;42.548;22.968;2023-12-07T10:43:12;2.63;;;2.00;;
10517;SDS011;5307;42.548;22.968;2023-12-07T10:45:43;6.75;;;4.63;;
10517;SDS011;5307;42.548;22.968;2023-12-07T10:48:12;5.05;;;2.92;;
10517;SDS011;5307;42.548;22.968;2023-12-07T10:50:41;1.92;;;1.75;;
10517;SDS011;5307;42.548;22.968;2023-12-07T10:53:10;4.43;;;3.15;;
10517;SDS011;5307;42.548;22.968;2023-12-07T10:55:42;3.25;;;2.45;;
10517;SDS011;5307;42.548;22.968;2023-12-07T11:00:44;6.82;;;4.13;;
10517;SDS011;5307;42.548;22.968;2023-12-07T11:03:13;6.65;;;2.85;;
10517;SDS011;5307;42.548;22.968;2023-12-07T11:05:42;3.72;;;2.50;;
10517;SDS011;5307;42.548;22.968;2023-12-07T11:08:11;2.72;;;1.98;;
10517;SDS011;5307;42.548;22.968;2023-12-07T11:10:48;1.48;;;1.38;;
10517;SDS011;5307;42.548;22.968;2023-12-07T11:13:22;2.95;;;1.67;;
10517;SDS011;5307;42.548;22.968;2023-12-07T11:15:55;2.45;;;1.80;;
10517;SDS011;5307;42.548;22.968;2023-12-07T11:18:24;2.50;;;1.80;;
10517;SDS011;5307;42.548;22.968;2023-12-07T11:20:51;6.07;;;3.38;;
10517;SDS011;5307;42.548;22.968;2023-12-07T11:23:20;14.32;;;4.53;;
10517;SDS011;5307;42.548;22.968;2023-12-07T11:25:48;3.05;;;2.30;;
10517;SDS011;5307;42.548;22.968;2023-12-07T11:28:15;2.50;;;1.48;;
10517;SDS011;5307;42.548;22.968;2023-12-07T11:30:44;9.32;;;4.75;;
10517;SDS011;5307;42.548;22.968;2023-12-07T11:33:13;4.05;;;2.40;;
10517;SDS011;5307;42.548;22.968;2023-12-07T11:38:29;3.38;;;2.50;;
10517;SDS011;5307;42.548;22.968;2023-12-07T11:40:56;3.60;;;1.77;;
10517;SDS011;5307;42.548;22.968;2023-12-07T11:43:30;5.22;;;2.35;;
10517;SDS011;5307;42.548;22.968;2023-12-07T11:46:03;7.45;;;3.65;;
10517;SDS011;5307;42.548;22.968;2023-12-07T11:48:31;6.25;;;3.42;;
10517;SDS011;5307;42.548;22.968;2023-12-07T11:50:58;4.30;;;3.05;;
10517;SDS011;5307;42.548;22.968;2023-12-07T11:53:27;7.38;;;4.55;;
10517;SDS011;5307;42.548;22.968;2023-12-07T12:02:25;7.82;;;3.92;;
10517;SDS011;5307;42.548;22.968;2023-12-07T12:04:53;5.60;;;3.13;;
10517;SDS011;5307;42.548;22.968;2023-12-07T12:07:20;3.42;;;2.45;;
10517;SDS011;5307;42.548;22.968;2023-12-07T12:09:50;4.22;;;1.83;;
10517;SDS011;5307;42.548;22.968;2023-12-07T12:12:17;3.85;;;2.08;;
10517;SDS011;5307;42.548;22.968;2023-12-07T12:14:44;3.22;;;2.10;;
10517;SDS011;5307;42.548;22.968;2023-12-07T12:17:10;4.53;;;2.33;;
10517;SDS011;5307;42.548;22.968;2023-12-07T12:19:41;3.63;;;1.77;;
10517;SDS011;5307;42.548;22.968;2023-12-07T12:22:10;2.88;;;2.17;;
10517;SDS011;5307;42.548;22.968;2023-12-07T12:24:37;1.98;;;1.80;;
10517;SDS011;5307;42.548;22.968;2023-12-07T12:27:05;4.30;;;2.33;;
10517;SDS011;5307;42.548;22.968;2023-12-07T12:29:32;1.88;;;1.60;;
10517;SDS011;5307;42.548;22.968;2023-12-07T12:32:00;3.25;;;2.10;;
10517;SDS011;5307;42.548;22.968;2023-12-07T12:34:27;2.70;;;2.33;;
10517;SDS011;5307;42.548;22.968;2023-12-07T12:36:55;3.85;;;2.00;;
10517;SDS011;5307;42.548;22.968;2023-12-07T12:39:27;6.22;;;3.38;;
10517;SDS011;5307;42.548;22.968;2023-12-07T12:41:57;2.95;;;2.13;;
10517;SDS011;5307;42.548;22.968;2023-12-07T12:44:24;4.20;;;2.28;;
10517;SDS011;5307;42.548;22.968;2023-12-07T12:46:51;2.55;;;2.08;;
10517;SDS011;5307;42.548;22.968;2023-12-07T12:49:18;14.75;;;7.05;;
10517;SDS011;5307;42.548;22.968;2023-12-07T12:51:44;8.80;;;4.88;;
10517;SDS011;5307;42.548;22.968;2023-12-07T12:54:13;12.38;;;7.72;;
10517;SDS011;5307;42.548;22.968;2023-12-07T12:56:41;6.55;;;3.58;;
10517;SDS011;5307;42.548;22.968;2023-12-07T12:59:09;5.13;;;3.08;;
10517;SDS011;5307;42.548;22.968;2023-12-07T13:01:35;3.88;;;3.20;;
10517;SDS011;5307;42.548;22.968;2023-12-07T13:04:02;3.65;;;2.70;;
10517;SDS011;5307;42.548;22.968;2023-12-07T13:06:29;2.17;;;1.45;;
10517;SDS011;5307;42.548;22.968;2023-12-07T13:08:56;3.40;;;2.40;;
10517;SDS011;5307;42.548;22.968;2023-12-07T13:11:23;3.03;;;2.72;;
10517;SDS011;5307;42.548;22.968;2023-12-07T13:13:51;5.55;;;3.78;;
10517;SDS011;5307;42.548;22.968;2023-12-07T13:19:39;4.45;;;3.42;;
10517;SDS011;5307;42.548;22.968;2023-12-07T13:22:06;2.17;;;1.98;;
10517;SDS011;5307;42.548;22.968;2023-12-07T13:24:33;6.07;;;2.92;;
10517;SDS011;5307;42.548;22.968;2023-12-07T13:27:00;4.85;;;3.60;;
10517;SDS011;5307;42.548;22.968;2023-12-07T13:29:28;5.55;;;3.40;;
10517;SDS011;5307;42.548;22.968;2023-12-07T13:31:55;3.97;;;2.78;;
10517;SDS011;5307;42.548;22.968;2023-12-07T13:34:23;7.10;;;4.50;;
10517;SDS011;5307;42.548;22.968;2023-12-07T13:36:51;7.30;;;4.35;;
10517;SDS011;5307;42.548;22.968;2023-12-07T13:39:18;18.58;;;7.10;;
10517;SDS011;5307;42.548;22.968;2023-12-07T13:41:45;7.97;;;4.38;;
10517;SDS011;5307;42.548;22.968;2023-12-07T13:44:14;15.18;;;7.07;;
10517;SDS011;5307;42.548;22.968;2023-12-07T13:46:44;10.65;;;5.18;;
10517;SDS011;5307;42.548;22.968;2023-12-07T13:49:11;13.80;;;5.93;;
10517;SDS011;5307;42.548;22.968;2023-12-07T13:51:39;13.45;;;6.82;;
10517;SDS011;5307;42.548;22.968;2023-12-07T13:54:06;32.35;;;11.45;;
10517;SDS011;5307;42.548;22.968;2023-12-07T13:56:33;19.52;;;10.00;;
10517;SDS011;5307;42.548;22.968;2023-12-07T13:59:00;9.13;;;5.15;;
10517;SDS011;5307;42.548;22.968;2023-12-07T14:04:50;14.88;;;6.78;;
10517;SDS011;5307;42.548;22.968;2023-12-07T14:07:18;22.52;;;8.27;;
10517;SDS011;5307;42.548;22.968;2023-12-07T14:09:46;13.00;;;7.20;;
10517;SDS011;5307;42.548;22.968;2023-12-07T14:12:14;6.07;;;3.40;;
10517;SDS011;5307;42.548;22.968;2023-12-07T14:14:41;12.25;;;7.90;;
10517;SDS011;5307;42.548;22.968;2023-12-07T14:17:10;12.55;;;7.68;;
10517;SDS011;5307;42.548;22.968;2023-12-07T14:19:36;10.45;;;6.45;;
10517;SDS011;5307;42.548;22.968;2023-12-07T14:22:05;8.50;;;4.90;;
10517;SDS011;5307;42.548;22.968;2023-12-07T14:24:34;12.43;;;7.55;;
10517;SDS011;5307;42.548;22.968;2023-12-07T14:27:03;12.05;;;6.60;;
10517;SDS011;5307;42.548;22.968;2023-12-07T14:29:30;16.20;;;9.43;;
10517;SDS011;5307;42.548;22.968;2023-12-07T14:31:57;17.80;;;8.75;;
10517;SDS011;5307;42.548;22.968;2023-12-07T14:34:25;10.98;;;6.43;;
10517;SDS011;5307;42.548;22.968;2023-12-07T14:36:52;17.30;;;8.73;;
10517;SDS011;5307;42.548;22.968;2023-12-07T14:39:21;15.82;;;7.75;;
10517;SDS011;5307;42.548;22.968;2023-12-07T14:41:48;10.93;;;6.93;;
10517;SDS011;5307;42.548;22.968;2023-12-07T14:44:16;11.63;;;6.85;;
10517;SDS011;5307;42.548;22.968;2023-12-07T14:46:44;8.35;;;5.95;;
10517;SDS011;5307;42.548;22.968;2023-12-07T14:49:12;7.88;;;5.90;;
10517;SDS011;5307;42.548;22.968;2023-12-07T14:58:10;15.27;;;8.18;;
10517;SDS011;5307;42.548;22.968;2023-12-07T15:00:36;14.10;;;9.70;;
10517;SDS011;5307;42.548;22.968;2023-12-07T15:03:04;18.58;;;10.27;;
10517;SDS011;5307;42.548;22.968;2023-12-07T15:05:31;9.43;;;5.90;;
10517;SDS011;5307;42.548;22.968;2023-12-07T15:07:57;9.88;;;7.18;;
10517;SDS011;5307;42.548;22.968;2023-12-07T15:10:24;12.68;;;7.68;;
10517;SDS011;5307;42.548;22.968;2023-12-07T15:12:51;26.17;;;14.68;;
10517;SDS011;5307;42.548;22.968;2023-12-07T15:15:19;13.55;;;8.10;;
10517;SDS011;5307;42.548;22.968;2023-12-07T15:17:46;33.72;;;13.40;;
10517;SDS011;5307;42.548;22.968;2023-12-07T15:20:13;9.07;;;5.57;;
10517;SDS011;5307;42.548;22.968;2023-12-07T15:22:39;12.25;;;7.63;;